• Join FlightAware (Why Join?)
  • Login
  • US Flag 
03:52AM EST


 

Airport Tracker/Info


-or-


 

Live Flight TrackerFlight Track Log ✈ DAL1225 ✈ 22-Apr-2013 ✈ CYYC - KMSP

Flight Track Log - Related Links

Times and Time Zones

All times are in EDT time to prevent confusion due to time zone crossing. See the DAL1225 flight status page for this flight to view local times or setup timezone preferences in your user account.

Time Position Orientation Groundspeed Altitude Reporting Facility
EDT Latitude Longitude Course Direction KTS MPH feet Rate Location/Type
04:46PM 51.1167 -114.1167 99° East 160 184 5,600  Level Edmonton Center
04:47PM 51.1500 -114.1833 309° West 250 288 7,400 2,700 Climbing Edmonton Center
04:48PM 51.0835 -113.2530 96° East  Level FlightAware Approximate
04:48PM 51.2167 -114.1167 32° Northeast 280 322 11,100  Level Edmonton Center
04:49PM 51.0825 -113.0618 94° East  Level FlightAware Approximate
04:49PM 51.1667 -114.0000 124° Southeast 300 345 14,100  Level Edmonton Center
04:50PM 51.0747 -112.8710 94° East  Level FlightAware Approximate
04:50PM 51.1333 -113.8500 109° East 360 414 15,400  Level Edmonton Center
04:51PM 51.0561 -112.6787 99° East  Level FlightAware Approximate
04:51PM 51.0833 -113.6833 115° Southeast 390 449 17,800  Level Edmonton Center
04:52PM 51.0833 -113.5167 90° East 410 472 19,700 2,100 Climbing Edmonton Center
04:53PM 51.0667 -113.3333 98° East 420 483 22,000 2,100 Climbing Edmonton Center
04:54PM 51.0500 -113.1333 97° East 430 495 23,900 1,740 Climbing Edmonton Center
04:55PM 51.0500 -112.9500 90° East 430 495 25,500 1,620 Climbing Edmonton Center
04:56PM 51.0500 -112.7500 90° East 450 518 27,200 1,500 Climbing Edmonton Center
04:57PM 51.0333 -112.5333 97° East 460 529 28,500 1,200 Climbing Edmonton Center
04:58PM 51.0333 -112.3167 90° East 470 541 29,700 1,380 Climbing Edmonton Center
04:59PM 51.0167 -112.1333 98° East 470 541 31,300 1,500 Climbing Edmonton Center
05:00PM 51.0000 -111.9167 97° East 470 541 32,700 1,260 Climbing Edmonton Center
05:01PM 51.0000 -111.7333 90° East 470 541 33,900 1,080 Climbing Edmonton Center
05:02PM 50.9833 -111.3833 94° East 470 541 35,700 900 Climbing Winnipeg Center
05:03PM 50.9833 -111.1667 90° East 470 541 36,500 600 Climbing Winnipeg Center
05:04PM 50.9667 -110.9500 97° East 480 552 37,000 240 Climbing Winnipeg Center
05:05PM 50.9500 -110.7500 97° East 470 541 37,000  Level Winnipeg Center
05:06PM 50.9333 -110.5333 97° East 470 541 37,000  Level Winnipeg Center
05:07PM 50.9333 -110.3500 90° East 470 541 37,000  Level Winnipeg Center
05:08PM 50.9167 -110.1500 97° East 470 541 37,000  Level Winnipeg Center
05:09PM 50.9167 -109.9333 90° East 470 541 37,000  Level Winnipeg Center
05:10PM 50.9000 -109.7167 97° East 470 541 37,000  Level Winnipeg Center
05:11PM 50.8833 -109.5000 97° East 470 541 37,000  Level Winnipeg Center
05:12PM 50.8833 -109.3167 90° East 470 541 37,000  Level Winnipeg Center
05:13PM 50.8833 -109.1000 90° East 470 541 37,000  Level Winnipeg Center
05:14PM 50.8667 -108.8833 97° East 470 541 37,000  Level Winnipeg Center
05:15PM 50.8667 -108.6667 90° East 470 541 37,000  Level Winnipeg Center
05:16PM 50.8500 -108.4833 98° East 470 541 37,000  Level Winnipeg Center
05:17PM 50.8500 -108.2667 90° East 470 541 37,000  Level Winnipeg Center
05:18PM 50.8333 -108.0667 97° East 470 541 37,000  Level Winnipeg Center
05:19PM 50.8167 -107.8500 97° East 470 541 37,000  Level Winnipeg Center
05:20PM 50.8167 -107.6333 90° East 470 541 37,000  Level Winnipeg Center
05:21PM 50.8167 -107.4500 90° East 480 552 37,000  Level Winnipeg Center
05:22PM 50.8000 -107.2333 97° East 470 541 37,000  Level Winnipeg Center
05:23PM 50.7833 -107.0167 97° East 480 552 37,000  Level Winnipeg Center
05:24PM 50.7667 -106.8000 97° East 470 541 37,000  Level Winnipeg Center
05:25PM 50.7667 -106.6167 90° East 470 541 37,000  Level Winnipeg Center
05:26PM 50.7500 -106.4000 97° East 480 552 37,000  Level Winnipeg Center
05:27PM 50.7333 -106.1833 97° East 480 552 37,000  Level Winnipeg Center
05:28PM 50.7167 -106.0000 98° East 480 552 37,000  Level Winnipeg Center
05:29PM 50.7000 -105.7500 96° East 480 552 37,000  Level Winnipeg Center
05:30PM 50.7000 -105.5667 90° East 480 552 37,000  Level Winnipeg Center
05:31PM 50.6833 -105.3500 97° East 480 552 37,000  Level Winnipeg Center
05:32PM 50.6667 -105.1333 97° East 480 552 37,000  Level Winnipeg Center
05:33PM 50.6333 -104.9500 106° East 480 552 37,000  Level Winnipeg Center
05:34PM 50.6167 -104.7333 97° East 480 552 37,000  Level Winnipeg Center
05:35PM 50.6000 -104.5167 97° East 480 552 37,000  Level Winnipeg Center
05:36PM 50.5833 -104.3333 98° East 480 552 37,000  Level Winnipeg Center
05:37PM 50.5500 -104.1167 104° East 480 552 37,000  Level Winnipeg Center
05:38PM 50.5167 -103.9000 104° East 480 552 37,000  Level Winnipeg Center
05:39PM 50.5000 -103.6833 97° East 480 552 37,000  Level Winnipeg Center
05:40PM 50.4667 -103.4833 105° East 480 552 37,000  Level Winnipeg Center
05:41PM 50.4500 -103.2833 97° East 480 552 37,000  Level Winnipeg Center
05:42PM 50.4167 -103.0667 103° East 480 552 37,000  Level Winnipeg Center
05:43PM 50.4000 -102.8833 98° East 480 552 37,000  Level Winnipeg Center
05:44PM 50.3500 -102.6667 110° East 480 552 37,000  Level Winnipeg Center
05:45PM 50.3333 -102.4667 97° East 480 552 37,000  Level Winnipeg Center
05:46PM 50.3000 -102.2667 105° East 480 552 37,000  Level Winnipeg Center
05:47PM 50.2667 -102.0500 103° East 480 552 37,000  Level Winnipeg Center
05:48PM 50.2333 -101.8333 103° East 480 552 37,000  Level Winnipeg Center
05:49PM 50.2000 -101.6500 106° East 480 552 37,000  Level Winnipeg Center
05:50PM 50.1667 -101.4667 106° East 480 552 37,000  Level Winnipeg Center
05:51PM 50.1167 -101.2500 110° East 480 552 37,000  Level Winnipeg Center
05:52PM 50.1000 -101.0333 97° East 470 541 37,000  Level Winnipeg Center
05:53PM 50.0500 -100.8167 110° East 480 552 37,000  Level Winnipeg Center
05:54PM 50.0167 -100.6333 106° East 480 552 37,000  Level Winnipeg Center
05:55PM 49.9833 -100.4500 106° East 480 552 37,000  Level Winnipeg Center
05:56PM 49.9500 -100.2500 104° East 480 552 37,000  Level Winnipeg Center
05:57PM 49.9000 -100.0500 111° Southeast 480 552 37,000  Level Winnipeg Center
05:58PM 49.8500 -99.8667 113° Southeast 480 552 37,000  Level Winnipeg Center
05:59PM 49.7500 -99.7333 139° Southeast 470 541 37,000  Level Winnipeg Center
06:00PM 49.6500 -99.5833 136° Southeast 470 541 37,000  Level Winnipeg Center
06:01PM 49.5500 -99.4333 136° Southeast 470 541 37,000  Level Winnipeg Center
06:02PM 49.4500 -99.3000 139° Southeast 470 541 37,000  Level Winnipeg Center
06:03PM 49.3667 -99.1833 138° Southeast 460 529 37,000  Level Winnipeg Center
06:04PM 49.2833 -99.0500 134° Southeast 470 541 37,000  Level Winnipeg Center
06:05PM 49.1833 -98.9167 139° Southeast 470 541 37,000  Level Winnipeg Center
06:06PM 49.0833 -98.7500 132° Southeast 460 529 37,000  Level Winnipeg Center
06:07PM 49.0000 -98.6167 134° Southeast 470 541 37,000  Level Winnipeg Center
06:08PM 48.9000 -98.5000 142° Southeast 470 541 37,000  Level Winnipeg Center
06:09PM 48.8000 -98.3667 139° Southeast 460 529 37,000  Level Winnipeg Center
06:10PM 48.7000 -98.2333 139° Southeast 460 529 37,000  Level Winnipeg Center
06:11PM 48.6167 -98.1000 133° Southeast 460 529 37,000 -60 Level Winnipeg Center
06:12PM 48.5356 -97.9767 135° Southeast 460 529 36,900 -60 Descending Minneapolis Center
06:13PM 48.4425 -97.8486 138° Southeast 456 525 36,900  Level Minneapolis Center
06:14PM 48.3486 -97.7194 138° Southeast 455 524 36,900  Level Minneapolis Center
06:16PM 48.2531 -97.5906 138° Southeast 459 528 36,900  Level Minneapolis Center
06:17PM 48.1386 -97.4356 138° Southeast 461 531 37,000  Climbing Minneapolis Center
06:18PM 48.0439 -97.3072 138° Southeast 459 528 37,000 -60 Level Minneapolis Center
06:19PM 47.9508 -97.1775 137° Southeast 457 526 36,900 -60 Descending Minneapolis Center
06:20PM 47.8739 -97.0211 126° Southeast 461 531 36,900  Level Minneapolis Center
06:21PM 47.7969 -96.8617 126° Southeast 468 539 37,000  Climbing Minneapolis Center
06:22PM 47.7200 -96.7058 126° Southeast 467 537 37,000  Level Minneapolis Center
06:23PM 47.6461 -96.5494 125° Southeast 465 535 37,000 -60 Level Minneapolis Center
06:24PM 47.5692 -96.3944 126° Southeast 465 535 36,900 -60 Descending Minneapolis Center
06:25PM 47.4931 -96.2392 126° Southeast 466 536 36,900  Level Minneapolis Center
06:26PM 47.4000 -96.0528 126° Southeast 468 539 37,000  Climbing Minneapolis Center
06:27PM 47.3228 -95.8978 126° Southeast 469 540 37,000  Level Minneapolis Center
06:28PM 47.2436 -95.7389 126° Southeast 471 542 37,000 -180 Level Minneapolis Center
06:29PM 47.1650 -95.5844 127° Southeast 472 543 36,700 -1,080 Descending Minneapolis Center
06:30PM 47.0867 -95.4333 127° Southeast 468 539 34,800 -1,920 Descending Minneapolis Center
06:31PM 47.0136 -95.2917 127° Southeast 442 509 32,800 -1,560 Descending Minneapolis Center
06:32PM 46.9417 -95.1500 127° Southeast 436 502 31,700 -1,020 Descending Minneapolis Center
06:33PM 46.8531 -95.0300 137° Southeast 438 504 30,800 -1,020 Descending Minneapolis Center
06:34PM 46.7408 -94.9014 142° Southeast 431 496 29,600 -1,080 Descending Minneapolis Center
06:35PM 46.6447 -94.7956 143° Southeast 434 499 28,600 -960 Descending Minneapolis Center
06:36PM 46.5514 -94.6894 142° Southeast 432 497 27,700 -960 Descending Minneapolis Center
06:37PM 46.4589 -94.5872 143° Southeast 423 487 26,700 -960 Descending Minneapolis Center
06:38PM 46.3658 -94.4842 143° Southeast 424 488 25,800 -960 Descending Minneapolis Center
06:39PM 46.2750 -94.3828 142° Southeast 420 483 24,800 -960 Descending Minneapolis Center
06:40PM 46.1808 -94.2803 143° Southeast 410 472 23,900 -960 Descending Minneapolis Center
06:41PM 46.0936 -94.1850 143° Southeast 400 460 22,900 -1,080 Descending Minneapolis Center
06:42PM 45.9900 -94.0725 143° Southeast 392 451 21,700 -1,080 Descending Minneapolis Center
06:43PM 45.9047 -93.9783 142° Southeast 389 448 20,800 -960 Descending Minneapolis Center
06:44PM 45.8200 -93.8869 143° Southeast 384 442 19,800 -1,020 Descending Minneapolis Center
06:45PM 45.7733 -93.8292 139° Southeast 384 442 19,200 -1,020 Descending FAA TRACON SMA TRACON (SMA)
06:45PM 45.7406 -93.7933 143° Southeast 384 442 18,900 -1,020 Descending FAA TRACON SMA TRACON (SMA)
06:45PM 45.7208 -93.7736 145° Southeast 380 437 18,600 -1,020 Descending FAA TRACON SMA TRACON (SMA)
06:46PM 45.6889 -93.7378 142° Southeast 379 436 18,300 -960 Descending FAA TRACON SMA TRACON (SMA)
06:46PM 45.6628 -93.7117 145° Southeast 377 434 18,000 -960 Descending FAA TRACON SMA TRACON (SMA)
06:46PM 45.6375 -93.6839 142° Southeast 374 430 17,700 -900 Descending FAA TRACON SMA TRACON (SMA)
06:47PM 45.6058 -93.6517 145° Southeast 367 422 17,400 -900 Descending FAA TRACON SMA TRACON (SMA)
06:47PM 45.5811 -93.6250 143° Southeast 362 417 17,100 -900 Descending FAA TRACON SMA TRACON (SMA)
06:47PM 45.5561 -93.5989 144° Southeast 363 418 16,800 -1,080 Descending FAA TRACON SMA TRACON (SMA)
06:48PM 45.5228 -93.5722 151° Southeast 360 414 16,400 -900 Descending FAA TRACON SMA TRACON (SMA)
06:48PM 45.4947 -93.5569 159° South 353 406 16,200 -780 Descending FAA TRACON SMA TRACON (SMA)
06:48PM 45.4667 -93.5419 159° South 350 403 15,900 -1,080 Descending FAA TRACON SMA TRACON (SMA)
06:49PM 45.4314 -93.5242 161° South 350 403 15,500 -1,080 Descending FAA TRACON SMA TRACON (SMA)
06:49PM 45.4033 -93.5089 159° South 349 402 15,200 -1,380 Descending FAA TRACON SMA TRACON (SMA)
06:49PM 45.3758 -93.4939 159° South 345 397 14,600 -2,520 Descending FAA TRACON SMA TRACON (SMA)
06:50PM 45.3414 -93.4750 159° South 344 396 13,500 -2,820 Descending FAA TRACON SMA TRACON (SMA)
06:50PM 45.3136 -93.4611 161° South 344 396 12,700 -2,520 Descending FAA TRACON SMA TRACON (SMA)
06:50PM 45.2861 -93.4469 160° South 341 392 11,900 -2,400 Descending FAA TRACON SMA TRACON (SMA)
06:51PM 45.2519 -93.4289 160° South 341 392 11,100 -1,500 Descending FAA TRACON SMA TRACON (SMA)
06:51PM 45.2250 -93.4142 159° South 338 389 10,900 -300 Descending FAA TRACON SMA TRACON (SMA)
06:51PM 45.1981 -93.4000 160° South 335 386 10,900  Level FAA TRACON SMA TRACON (SMA)
06:52PM 45.1714 -93.3864 160° South 332 382 10,900  Level FAA TRACON SMA TRACON (SMA)
06:52PM 45.1383 -93.3686 159° South 329 379 10,900  Level FAA TRACON SMA TRACON (SMA)
06:52PM 45.1139 -93.3553 159° South 316 364 10,900 -480 Level FAA TRACON SMA TRACON (SMA)
06:53PM 45.0900 -93.3425 159° South 299 344 10,600 -900 Descending FAA TRACON SMA TRACON (SMA)
06:53PM 45.0625 -93.3275 159° South 280 322 10,300 -1,080 Descending FAA TRACON SMA TRACON (SMA)
06:53PM 45.0411 -93.3158 159° South 269 310 9,900 -1,380 Descending FAA TRACON SMA TRACON (SMA)
06:54PM 45.0208 -93.3011 153° Southeast 266 306 9,400 -1,620 Descending FAA TRACON SMA TRACON (SMA)
06:54PM 45.0053 -93.2661 122° Southeast 278 320 8,800 -1,620 Descending FAA TRACON SMA TRACON (SMA)
06:54PM 44.9950 -93.2350 115° Southeast 283 326 8,300 -1,260 Descending FAA TRACON SMA TRACON (SMA)
06:55PM 44.9853 -93.2039 114° Southeast 282 325 8,000 -660 Descending FAA TRACON SMA TRACON (SMA)
06:55PM 44.9731 -93.1658 114° Southeast 279 321 7,900 -300 Descending FAA TRACON SMA TRACON (SMA)
06:55PM 44.9628 -93.1356 116° Southeast 278 320 7,800 -780 Descending FAA TRACON SMA TRACON (SMA)
06:56PM 44.9525 -93.1064 116° Southeast 271 312 7,400 -1,680 Descending FAA TRACON SMA TRACON (SMA)
06:56PM 44.9397 -93.0706 117° Southeast 266 306 6,700 -1,620 Descending FAA TRACON SMA TRACON (SMA)
06:56PM 44.9272 -93.0450 125° Southeast 261 300 6,300 -1,380 Descending FAA TRACON SMA TRACON (SMA)
06:57PM 44.9136 -93.0211 129° Southeast 255 293 5,800 -1,500 Descending FAA TRACON SMA TRACON (SMA)
06:57PM 44.8958 -92.9925 131° Southeast 252 290 5,300 -1,080 Descending FAA TRACON SMA TRACON (SMA)
06:57PM 44.8822 -92.9714 132° Southeast 242 278 5,100 -660 Descending FAA TRACON SMA TRACON (SMA)
06:58PM 44.8689 -92.9517 134° Southeast 230 265 4,900 -780 Descending FAA TRACON SMA TRACON (SMA)
06:58PM 44.8583 -92.9303 125° Southeast 219 252 4,600 -1,200 Descending FAA TRACON SMA TRACON (SMA)
06:58PM 44.8447 -92.9039 126° Southeast 215 247 4,100 -1,080 Descending FAA TRACON SMA TRACON (SMA)
06:59PM 44.8328 -92.8831 129° Southeast 220 253 3,900 -300 Descending FAA TRACON SMA TRACON (SMA)
06:59PM 44.8211 -92.8617 128° Southeast 225 259 3,900  Level FAA TRACON SMA TRACON (SMA)
06:59PM 44.8019 -92.8411 143° Southeast 233 268 3,900  Level FAA TRACON SMA TRACON (SMA)
07:00PM 44.7833 -92.8431 184° South 238 274 3,900  Level FAA TRACON SMA TRACON (SMA)
07:00PM 44.7686 -92.8603 220° Southwest 237 273 3,900  Level FAA TRACON SMA TRACON (SMA)
07:00PM 44.7617 -92.8897 252° West 221 254 3,900  Level FAA TRACON SMA TRACON (SMA)
07:01PM 44.7647 -92.9136 280° West 206 237 3,900  Level FAA TRACON SMA TRACON (SMA)
07:01PM 44.7700 -92.9367 288° West 200 230 3,900  Level FAA TRACON SMA TRACON (SMA)
07:01PM 44.7806 -92.9619 300° West 194 223 3,900  Level FAA TRACON SMA TRACON (SMA)
07:02PM 44.7894 -92.9811 303° West 193 222 3,900  Level FAA TRACON SMA TRACON (SMA)
07:02PM 44.8003 -93.0061 301° West 194 223 3,900 -300 Level FAA TRACON SMA TRACON (SMA)
07:02PM 44.8083 -93.0258 300° West 191 220 3,700 -960 Descending FAA TRACON SMA TRACON (SMA)
07:03PM 44.8164 -93.0442 302° West 183 211 3,300 -1,080 Descending FAA TRACON SMA TRACON (SMA)
07:03PM 44.8239 -93.0614 302° West 171 197 3,000 -900 Descending FAA TRACON SMA TRACON (SMA)